Time;durP1;ratioP1;P1;durP2;ratioP2;P2;SDS_P1;SDS_P2;PMS_P1;PMS_P2;Temp;Humidity;BMP_temperature;BMP_pressure;BME280_temperature;BME280_humidity;BME280_pressure;Samples;Min_cycle;Max_cycle;Signal;HPM_P1;HPM_P2
2022/06/29 00:00:57;;;;;;;6.70;3.72;;;18.40;99.90;;;;;;9181672;19;20014;-66
2022/06/29 00:04:03;;;;;;;5.45;3.78;;;18.20;99.90;;;;;;9181100;19;20014;-66
2022/06/29 00:07:07;;;;;;;;;;;18.40;99.90;;;;;;9183202;19;20018;-66
2022/06/29 00:10:14;;;;;;;5.93;3.70;;;18.20;99.90;;;;;;9183422;19;19922;-66
2022/06/29 00:13:18;;;;;;;6.38;3.70;;;18.20;99.90;;;;;;9180259;19;20479;-66
2022/06/29 00:16:22;;;;;;;7.43;4.47;;;18.20;99.90;;;;;;9182012;19;20015;-66
2022/06/29 00:19:29;;;;;;;7.88;3.90;;;18.10;99.90;;;;;;9176125;19;20052;-66
2022/06/29 00:22:35;;;;;;;5.93;4.20;;;18.00;99.90;;;;;;9180352;19;20022;-66
2022/06/29 00:25:41;;;;;;;5.97;4.20;;;18.00;99.90;;;;;;9183779;19;20023;-66
2022/06/29 00:28:45;;;;;;;5.90;4.15;;;18.10;99.90;;;;;;9181779;19;20022;-66
2022/06/29 00:31:49;;;;;;;6.25;4.18;;;17.90;99.90;;;;;;9181720;19;20074;-66
2022/06/29 00:34:56;;;;;;;6.55;4.18;;;17.80;99.90;;;;;;9181785;19;20018;-66
2022/06/29 00:38:00;;;;;;;6.07;4.35;;;17.90;99.90;;;;;;9180230;19;20078;-66
2022/06/29 00:41:04;;;;;;;5.68;4.60;;;17.80;99.90;;;;;;9181188;19;20007;-66
2022/06/29 00:44:09;;;;;;;9.43;5.00;;;17.70;99.90;;;;;;9192810;19;20074;-66
2022/06/29 00:47:13;;;;;;;8.85;4.80;;;17.80;99.90;;;;;;9199925;19;20056;-66
2022/06/29 00:50:19;;;;;;;5.90;4.78;;;17.60;99.90;;;;;;9199947;19;20019;-66
2022/06/29 00:53:24;;;;;;;7.80;4.70;;;17.50;99.90;;;;;;9197764;19;20019;-66
2022/06/29 00:56:28;;;;;;;6.30;4.90;;;17.70;99.90;;;;;;9198716;19;20519;-66
2022/06/29 00:59:37;;;;;;;7.32;4.40;;;17.50;99.90;;;;;;9197910;19;20025;-66
2022/06/29 01:02:41;;;;;;;6.43;4.53;;;17.60;99.90;;;;;;9197285;19;20018;-66
2022/06/29 01:05:48;;;;;;;7.15;4.78;;;17.70;99.90;;;;;;9198461;19;20011;-66
2022/06/29 01:08:52;;;;;;;7.57;4.75;;;17.30;99.90;;;;;;9196572;19;20014;-67
2022/06/29 01:11:56;;;;;;;6.53;5.00;;;17.50;99.90;;;;;;9196458;19;20501;-66
2022/06/29 01:15:00;;;;;;;7.63;5.05;;;17.40;99.90;;;;;;9196811;19;20015;-66
2022/06/29 01:18:04;;;;;;;7.47;5.22;;;17.40;99.90;;;;;;9196343;19;20060;-66
2022/06/29 01:21:13;;;;;;;7.15;5.32;;;17.50;99.90;;;;;;9198624;19;20056;-66
2022/06/29 01:24:20;;;;;;;7.75;5.32;;;17.20;99.90;;;;;;9197076;19;20015;-66
2022/06/29 01:27:24;;;;;;;8.25;5.07;;;17.30;99.90;;;;;;9193777;19;20003;-66
2022/06/29 01:30:28;;;;;;;8.00;5.45;;;17.10;99.90;;;;;;9197318;19;20048;-66
2022/06/29 01:33:32;;;;;;;6.35;5.30;;;17.00;99.90;;;;;;9193699;19;20018;-66
2022/06/29 01:36:36;;;;;;;7.22;5.47;;;17.10;99.90;;;;;;9197180;19;20078;-66
2022/06/29 01:39:44;;;;;;;10.27;5.75;;;17.00;99.90;;;;;;9193630;19;20019;-66
2022/06/29 01:42:48;;;;;;;8.90;5.40;;;17.00;99.90;;;;;;9193977;19;20327;-66
2022/06/29 01:45:52;;;;;;;8.02;5.47;;;17.10;99.90;;;;;;9192606;19;20010;-66
2022/06/29 01:48:56;;;;;;;9.43;5.40;;;17.00;99.90;;;;;;9195522;19;20038;-67
2022/06/29 01:52:00;;;;;;;7.90;6.15;;;17.00;99.90;;;;;;9197178;19;20026;-66
2022/06/29 01:55:09;;;;;;;8.75;5.95;;;16.90;99.90;;;;;;9188209;19;20018;-66
2022/06/29 01:58:13;;;;;;;8.23;5.90;;;17.00;99.90;;;;;;9187167;19;20028;-66
2022/06/29 02:01:17;;;;;;;7.10;5.88;;;17.70;99.90;;;;;;9185532;19;20010;-66
2022/06/29 02:04:21;;;;;;;7.07;5.97;;;16.70;99.90;;;;;;9186917;19;20014;-66
2022/06/29 02:07:25;;;;;;;9.43;6.10;;;16.90;99.90;;;;;;9188644;19;20014;-66
2022/06/29 02:10:32;;;;;;;8.88;6.22;;;16.70;99.90;;;;;;9186685;19;20376;-66
2022/06/29 02:13:36;;;;;;;7.63;6.13;;;16.90;99.90;;;;;;9185837;19;20022;-65
2022/06/29 02:16:40;;;;;;;8.98;6.55;;;16.90;99.90;;;;;;9186379;19;20011;-66
2022/06/29 02:19:44;;;;;;;8.35;5.97;;;16.80;99.90;;;;;;9185709;19;20035;-66
2022/06/29 02:22:48;;;;;;;10.13;6.43;;;16.70;99.90;;;;;;9184541;19;20011;-66
2022/06/29 02:25:54;;;;;;;9.75;6.60;;;16.40;99.90;;;;;;9187541;19;20019;-66
2022/06/29 02:28:58;;;;;;;8.75;6.47;;;16.80;99.90;;;;;;9186776;19;20018;-66
2022/06/29 02:35:19;;;;;;;9.05;7.05;;;16.60;99.90;;;;;;9183762;19;20021;-66
2022/06/29 02:38:23;;;;;;;8.77;6.85;;;16.50;99.90;;;;;;9183379;19;20018;-66
2022/06/29 02:41:29;;;;;;;9.68;7.05;;;16.50;99.90;;;;;;9185262;19;20022;-66
2022/06/29 02:44:34;;;;;;;10.38;6.80;;;16.60;99.90;;;;;;9183249;19;20010;-66
2022/06/29 02:47:38;;;;;;;11.18;7.20;;;16.60;99.90;;;;;;9183188;19;20487;-66
2022/06/29 02:50:43;;;;;;;9.73;7.35;;;16.60;99.90;;;;;;9184926;19;20014;-66
2022/06/29 02:53:47;;;;;;;10.80;7.18;;;16.50;99.90;;;;;;9183590;19;20384;-66
2022/06/29 02:56:54;;;;;;;9.95;6.85;;;16.50;99.90;;;;;;9185182;19;20380;-66
2022/06/29 02:59:58;;;;;;;10.07;7.72;;;16.40;99.90;;;;;;9184107;19;20018;-66
2022/06/29 03:03:01;;;;;;;10.45;7.03;;;16.50;99.90;;;;;;9184229;19;20025;-66
2022/06/29 03:06:05;;;;;;;11.40;7.68;;;16.30;99.90;;;;;;9181847;19;20015;-66
2022/06/29 03:09:10;;;;;;;9.55;7.30;;;16.40;99.90;;;;;;9183943;19;20085;-66
2022/06/29 03:12:16;;;;;;;9.55;7.35;;;16.30;99.90;;;;;;9184038;19;20017;-66
2022/06/29 03:15:20;;;;;;;10.43;8.05;;;16.20;99.90;;;;;;9180954;19;20047;-66
2022/06/29 03:18:24;;;;;;;11.15;7.93;;;16.20;99.90;;;;;;9180958;19;20277;-66
2022/06/29 03:21:28;;;;;;;9.63;7.57;;;16.30;99.90;;;;;;9184142;19;20025;-66
2022/06/29 03:24:32;;;;;;;8.52;7.43;;;16.30;99.90;;;;;;9184014;19;20025;-66
2022/06/29 03:27:38;;;;;;;10.93;8.02;;;16.20;99.90;;;;;;9185944;19;20378;-66
2022/06/29 03:30:42;;;;;;;11.63;7.95;;;16.20;99.90;;;;;;9183809;19;20094;-66
2022/06/29 03:33:46;;;;;;;9.05;7.45;;;16.20;99.90;;;;;;9182414;19;20019;-66
2022/06/29 03:36:50;;;;;;;13.52;8.05;;;16.10;99.90;;;;;;9184578;19;20010;-66
2022/06/29 03:39:54;;;;;;;11.65;7.93;;;16.00;99.90;;;;;;9183203;19;20018;-66
2022/06/29 03:43:00;;;;;;;10.43;8.35;;;16.20;99.90;;;;;;9181407;19;20018;-66
2022/06/29 03:46:05;;;;;;;10.65;8.10;;;16.20;99.90;;;;;;9179945;19;20019;-66
2022/06/29 03:49:09;;;;;;;10.55;7.18;;;15.90;99.90;;;;;;9181630;19;20010;-66
2022/06/29 03:52:12;;;;;;;10.57;8.05;;;16.00;99.90;;;;;;9183296;19;20078;-66
2022/06/29 03:55:16;;;;;;;10.75;8.00;;;16.20;99.90;;;;;;9184179;19;20096;-66
2022/06/29 03:58:23;;;;;;;13.90;8.05;;;16.00;99.90;;;;;;9180070;19;20109;-66
2022/06/29 04:01:27;;;;;;;10.05;7.60;;;16.00;99.90;;;;;;9182873;19;20348;-66
2022/06/29 04:04:30;;;;;;;9.38;7.75;;;16.10;99.90;;;;;;9178348;19;20006;-66
2022/06/29 04:07:35;;;;;;;9.30;7.63;;;16.30;99.90;;;;;;9182976;19;20418;-66
2022/06/29 04:10:39;;;;;;;11.70;7.80;;;16.00;99.90;;;;;;9179194;19;20022;-66
2022/06/29 04:13:45;;;;;;;9.25;7.50;;;16.20;99.90;;;;;;9179106;19;20014;-66
2022/06/29 04:16:50;;;;;;;10.50;7.82;;;15.90;99.90;;;;;;9181221;19;20015;-66
2022/06/29 04:19:54;;;;;;;8.82;7.75;;;16.20;99.90;;;;;;9181642;19;20014;-66
2022/06/29 04:22:58;;;;;;;8.90;7.97;;;16.20;99.90;;;;;;9181859;19;20052;-66
2022/06/29 04:26:01;;;;;;;9.75;7.47;;;16.00;99.90;;;;;;9178428;19;20014;-66
2022/06/29 04:29:08;;;;;;;11.10;7.80;;;16.10;99.90;;;;;;9181714;19;20017;-66
2022/06/29 04:32:13;;;;;;;9.27;7.45;;;16.10;99.90;;;;;;9182171;19;20018;-66
2022/06/29 04:35:17;;;;;;;9.88;7.97;;;16.00;99.90;;;;;;9180378;19;20052;-66
2022/06/29 04:38:21;;;;;;;9.65;8.25;;;16.10;99.90;;;;;;9179643;19;20018;-66
2022/06/29 04:41:25;;;;;;;11.35;8.23;;;16.00;99.90;;;;;;9177042;19;20360;-66
2022/06/29 04:44:31;;;;;;;10.60;8.10;;;16.20;99.90;;;;;;9175903;19;20353;-66
2022/06/29 04:47:36;;;;;;;10.38;8.07;;;16.00;99.90;;;;;;9175827;19;20022;-66
2022/06/29 04:50:40;;;;;;;12.00;8.88;;;16.20;99.90;;;;;;9176840;19;20010;-66
2022/06/29 04:53:45;;;;;;;8.75;7.90;;;16.30;99.90;;;;;;9177625;19;20382;-66
2022/06/29 04:56:49;;;;;;;8.98;8.07;;;16.30;99.90;;;;;;9181005;19;20026;-66
2022/06/29 04:59:55;;;;;;;10.15;8.05;;;16.30;99.90;;;;;;9175368;19;20082;-66
2022/06/29 05:02:59;;;;;;;11.00;8.45;;;16.40;99.90;;;;;;9179743;19;20487;-66
2022/06/29 05:06:03;;;;;;;10.48;7.78;;;16.40;99.90;;;;;;9180719;19;20026;-66
2022/06/29 05:09:07;;;;;;;11.77;8.70;;;16.50;99.90;;;;;;9179366;19;20015;-66
2022/06/29 05:12:11;;;;;;;10.73;8.52;;;16.50;99.90;;;;;;9178627;19;20491;-66
2022/06/29 05:15:17;;;;;;;13.93;8.73;;;16.60;99.90;;;;;;9180673;19;20841;-66
2022/06/29 05:18:21;;;;;;;9.48;8.50;;;16.40;99.90;;;;;;9178504;19;20047;-66
2022/06/29 05:21:25;;;;;;;10.75;8.48;;;16.60;99.90;;;;;;9180769;19;20013;-66
2022/06/29 05:24:29;;;;;;;9.55;8.43;;;16.60;99.90;;;;;;9176571;19;20014;-66
2022/06/29 05:27:33;;;;;;;12.35;8.35;;;16.50;99.90;;;;;;9180092;19;20479;-66
2022/06/29 05:30:41;;;;;;;9.27;8.27;;;16.80;99.90;;;;;;9187860;19;20018;-66
2022/06/29 05:33:44;;;;;;;;;;;16.70;99.90;;;;;;9184656;19;20776;-66
2022/06/29 05:36:48;;;;;;;8.95;7.88;;;16.90;99.90;;;;;;9188079;19;20273;-66
2022/06/29 05:39:52;;;;;;;12.05;7.82;;;16.70;99.90;;;;;;9182640;19;20014;-66
2022/06/29 05:42:57;;;;;;;10.23;8.00;;;16.80;99.90;;;;;;9187637;19;20019;-66
2022/06/29 05:46:04;;;;;;;12.73;8.43;;;16.80;99.90;;;;;;9186518;19;20014;-66
2022/06/29 05:49:08;;;;;;;13.63;8.20;;;16.90;99.90;;;;;;9183880;19;20494;-66
2022/06/29 05:52:12;;;;;;;9.45;8.15;;;16.90;99.90;;;;;;9186892;19;20019;-66
2022/06/29 05:55:16;;;;;;;9.45;7.93;;;16.90;99.90;;;;;;9187241;19;20022;-65
2022/06/29 05:58:22;;;;;;;8.43;7.32;;;17.20;99.90;;;;;;9185536;19;20501;-65
2022/06/29 06:01:29;;;;;;;8.90;8.00;;;17.10;99.90;;;;;;9186083;19;20075;-65
2022/06/29 06:04:33;;;;;;;9.90;7.78;;;17.20;99.90;;;;;;9185720;19;20018;-65
2022/06/29 06:07:37;;;;;;;11.55;7.90;;;17.00;99.90;;;;;;9185220;19;20018;-66
2022/06/29 06:10:41;;;;;;;8.45;7.10;;;17.20;99.90;;;;;;9186089;19;20022;-67
2022/06/29 06:13:45;;;;;;;8.75;7.10;;;17.10;99.90;;;;;;9186156;19;20018;-66
2022/06/29 06:16:52;;;;;;;10.55;7.65;;;17.10;99.90;;;;;;9184973;19;20017;-66
2022/06/29 06:19:56;;;;;;;8.02;7.20;;;17.10;99.90;;;;;;9183553;19;20018;-67
2022/06/29 06:23:00;;;;;;;8.18;7.05;;;17.10;99.90;;;;;;9183207;19;20018;-67
2022/06/29 06:26:04;;;;;;;10.07;6.90;;;17.20;99.90;;;;;;9181459;19;20581;-67
2022/06/29 06:29:08;;;;;;;8.98;6.70;;;17.30;99.90;;;;;;9188413;19;20014;-68
2022/06/29 06:32:15;;;;;;;8.68;6.90;;;17.20;99.90;;;;;;9179586;19;20015;-67
2022/06/29 06:35:19;;;;;;;6.82;6.10;;;17.60;99.90;;;;;;9177767;19;20014;-68
2022/06/29 06:38:23;;;;;;;7.28;6.00;;;17.40;99.90;;;;;;9184318;19;20048;-67
2022/06/29 06:41:27;;;;;;;6.82;5.75;;;17.50;99.90;;;;;;9183041;19;20037;-66
2022/06/29 06:44:31;;;;;;;7.53;5.65;;;17.70;99.90;;;;;;9183167;19;20022;-66
2022/06/29 06:47:38;;;;;;;7.65;5.60;;;17.60;99.90;;;;;;9178822;19;20014;-66
2022/06/29 06:50:43;;;;;;;7.47;5.75;;;17.70;99.90;;;;;;9185419;19;20030;-65
2022/06/29 06:53:47;;;;;;;8.35;5.50;;;17.80;99.90;;;;;;9180697;19;20023;-66
2022/06/29 06:56:54;;;;;;;7.93;5.80;;;17.60;99.90;;;;;;9181776;19;20029;-66
2022/06/29 06:59:58;;;;;;;7.47;5.60;;;17.70;99.90;;;;;;9181037;19;20085;-66
2022/06/29 07:03:04;;;;;;;11.82;5.40;;;17.90;99.90;;;;;;9181238;19;20014;-66
2022/06/29 07:06:10;;;;;;;7.78;5.03;;;17.90;99.90;;;;;;9182954;19;20043;-67
2022/06/29 07:09:14;;;;;;;7.63;5.15;;;17.90;99.90;;;;;;9179832;19;20048;-66
2022/06/29 07:12:18;;;;;;;5.25;4.72;;;18.00;99.90;;;;;;9183265;19;20365;-67
2022/06/29 07:15:22;;;;;;;7.82;4.85;;;18.30;99.90;;;;;;9181823;19;20014;-66
2022/06/29 07:18:28;;;;;;;5.97;4.88;;;18.00;99.90;;;;;;9183200;19;20015;-66
2022/06/29 07:21:32;;;;;;;6.63;4.47;;;18.10;99.90;;;;;;9178803;19;20019;-66
2022/06/29 07:24:36;;;;;;;7.03;4.47;;;18.10;99.90;;;;;;9181767;19;20539;-66
2022/06/29 07:27:40;;;;;;;5.13;4.43;;;18.30;99.90;;;;;;9183006;19;20014;-66
2022/06/29 07:30:44;;;;;;;6.82;4.15;;;17.00;99.90;;;;;;9183365;19;20029;-66
2022/06/29 07:33:50;;;;;;;4.35;3.92;;;18.60;99.90;;;;;;9182002;19;20010;-66
2022/06/29 07:36:55;;;;;;;5.53;3.92;;;18.50;99.90;;;;;;9180871;19;20018;-66
2022/06/29 07:39:59;;;;;;;9.02;3.80;;;18.50;99.90;;;;;;9174287;19;20022;-66
2022/06/29 07:43:03;;;;;;;6.40;3.80;;;18.60;99.90;;;;;;9181686;19;20044;-66
2022/06/29 07:46:08;;;;;;;6.13;3.17;;;18.60;99.90;;;;;;9182601;19;20483;-66
2022/06/29 07:49:15;;;;;;;6.88;3.20;;;20.80;99.90;;;;;;9182211;19;20014;-66
2022/06/29 07:52:19;;;;;;;4.82;3.53;;;18.80;99.90;;;;;;9181868;19;20014;-66
2022/06/29 07:55:24;;;;;;;4.20;3.40;;;18.90;99.90;;;;;;9179530;19;20044;-66
2022/06/29 07:58:28;;;;;;;6.78;3.50;;;18.80;99.90;;;;;;9180452;19;20019;-66
2022/06/29 08:01:32;;;;;;;5.10;3.45;;;18.90;99.90;;;;;;9179117;19;20090;-66
2022/06/29 08:04:40;;;;;;;5.28;3.42;;;19.00;99.90;;;;;;9183550;19;20351;-66
2022/06/29 08:07:44;;;;;;;5.95;3.17;;;19.20;99.90;;;;;;9183279;19;20048;-66
2022/06/29 08:10:48;;;;;;;4.75;3.00;;;19.30;99.90;;;;;;9182300;19;20014;-66
2022/06/29 08:13:52;;;;;;;5.28;3.08;;;19.20;99.90;;;;;;9178136;19;20010;-66
2022/06/29 08:16:56;;;;;;;3.88;2.80;;;19.40;99.90;;;;;;9180930;19;20074;-67
2022/06/29 08:20:03;;;;;;;5.80;3.33;;;19.40;99.90;;;;;;9179895;19;20022;-66
2022/06/29 08:23:07;;;;;;;3.60;2.95;;;19.50;99.90;;;;;;9181675;19;20346;-66
2022/06/29 08:26:11;;;;;;;7.05;3.63;;;19.40;99.90;;;;;;9178083;19;20062;-66
2022/06/29 08:29:15;;;;;;;6.07;3.30;;;19.60;99.90;;;;;;9180045;19;20531;-66
2022/06/29 08:32:19;;;;;;;3.28;2.97;;;19.60;99.90;;;;;;9183079;19;20010;-67
2022/06/29 08:35:27;;;;;;;4.72;2.88;;;19.60;99.90;;;;;;9178685;19;20025;-67
2022/06/29 08:38:31;;;;;;;3.00;2.63;;;19.70;99.90;;;;;;9182108;19;20017;-66
2022/06/29 08:41:35;;;;;;;4.32;2.60;;;19.90;99.90;;;;;;9174879;19;20018;-67
2022/06/29 08:44:40;;;;;;;3.60;2.65;;;20.00;99.90;;;;;;9174608;19;20126;-67
2022/06/29 08:47:45;;;;;;;2.85;2.50;;;19.90;99.90;;;;;;9179800;19;20022;-66
2022/06/29 08:50:54;;;;;;;5.22;2.90;;;20.10;99.90;;;;;;9178523;19;20022;-67
2022/06/29 08:53:59;;;;;;;3.33;2.60;;;20.30;99.90;;;;;;9177524;19;20062;-66
2022/06/29 08:57:05;;;;;;;3.35;2.53;;;20.10;99.90;;;;;;9181510;19;20053;-67
2022/06/29 09:00:11;;;;;;;7.20;2.50;;;20.10;99.90;;;;;;9175700;19;20014;-67
2022/06/29 09:03:28;;;;;;;3.80;2.80;;;20.30;99.90;;;;;;9180659;19;20371;-67
2022/06/29 09:06:35;;;;;;;3.40;2.85;;;20.30;99.90;;;;;;9184605;19;20014;-67
2022/06/29 09:09:59;;;;;;;3.92;3.00;;;20.30;99.90;;;;;;9189922;19;20066;-66
2022/06/29 09:13:08;;;;;;;3.72;2.92;;;20.50;99.90;;;;;;9186207;19;20491;-68
2022/06/29 09:16:12;;;;;;;6.75;3.00;;;20.40;99.90;;;;;;9190873;19;20010;-67
2022/06/29 09:19:16;;;;;;;3.55;2.92;;;20.70;99.90;;;;;;9185279;19;20052;-67
2022/06/29 09:22:23;;;;;;;6.43;3.25;;;20.70;99.90;;;;;;9190522;19;20006;-66
2022/06/29 09:25:27;;;;;;;5.60;2.90;;;20.80;99.90;;;;;;9188257;19;20048;-67
2022/06/29 09:28:33;;;;;;;5.85;3.17;;;21.00;99.90;;;;;;9189376;19;20014;-67
2022/06/29 09:31:37;;;;;;;4.15;2.97;;;20.80;99.90;;;;;;9189998;19;20010;-67
2022/06/29 09:34:43;;;;;;;4.90;3.00;;;20.90;99.90;;;;;;9186762;19;20018;-66
2022/06/29 09:37:50;;;;;;;4.30;2.90;;;20.90;99.90;;;;;;9190011;19;20090;-67
2022/06/29 09:41:01;;;;;;;4.95;2.88;;;21.20;99.90;;;;;;9183014;19;20371;-67
2022/06/29 09:44:05;;;;;;;4.80;3.20;;;21.10;99.90;;;;;;9182973;19;20018;-67
2022/06/29 09:47:12;;;;;;;3.20;2.70;;;21.30;99.60;;;;;;9184622;19;20010;-67
2022/06/29 09:50:16;;;;;;;4.65;3.00;;;21.40;99.90;;;;;;9186508;19;20036;-66
2022/06/29 09:53:27;;;;;;;3.30;2.63;;;21.50;99.90;;;;;;9185421;19;20091;-67
2022/06/29 09:56:33;;;;;;;4.55;2.92;;;21.50;99.10;;;;;;9184367;19;20025;-66
2022/06/29 10:02:57;;;;;;;6.75;2.88;;;21.80;99.00;;;;;;9187496;19;20352;-67
2022/06/29 10:06:05;;;;;;;3.97;2.70;;;21.90;99.20;;;;;;9187880;19;20519;-66
2022/06/29 10:09:12;;;;;;;4.13;2.80;;;22.10;98.60;;;;;;9187782;19;20022;-66
2022/06/29 10:15:50;;;;;;;4.40;2.65;;;22.10;97.80;;;;;;9181437;19;20026;-66
2022/06/29 10:19:23;;;;;;;6.32;2.30;;;22.40;98.10;;;;;;9186520;19;20591;-66
2022/06/29 10:22:31;;;;;;;4.95;2.75;;;22.30;97.10;;;;;;9182638;19;20021;-66
2022/06/29 10:25:39;;;;;;;3.60;2.45;;;22.60;97.00;;;;;;9177693;19;20030;-66
2022/06/29 10:28:43;;;;;;;3.00;2.50;;;22.60;97.30;;;;;;9181385;19;20417;-67
2022/06/29 10:32:02;;;;;;;3.90;2.60;;;22.70;97.10;;;;;;9184714;19;20494;-66
2022/06/29 10:35:09;;;;;;;3.67;2.50;;;22.80;97.00;;;;;;9183521;19;20021;-67
2022/06/29 10:38:13;;;;;;;2.80;2.45;;;22.80;96.60;;;;;;9181881;19;20022;-67
2022/06/29 10:44:57;;;;;;;4.05;2.92;;;22.90;96.50;;;;;;9178828;19;20035;-67
2022/06/29 10:48:17;;;;;;;3.35;2.60;;;23.20;95.10;;;;;;9180019;19;20405;-67
2022/06/29 10:51:22;;;;;;;3.95;2.42;;;23.30;94.70;;;;;;9182054;19;20025;-67
2022/06/29 10:54:27;;;;;;;3.20;2.30;;;23.40;93.80;;;;;;9181954;19;20017;-67
2022/06/29 10:57:35;;;;;;;4.73;2.57;;;23.40;94.10;;;;;;9180437;19;20019;-66
2022/06/29 11:00:43;;;;;;;4.35;2.88;;;23.20;93.10;;;;;;9184645;19;20433;-68
2022/06/29 11:03:47;;;;;;;4.07;2.50;;;23.30;92.80;;;;;;9180307;19;20478;-68
2022/06/29 11:13:41;;;;;;;3.30;2.33;;;23.30;93.50;;;;;;9179320;19;20014;-67
2022/06/29 11:16:45;;;;;;;;;;;23.30;92.90;;;;;;9180759;19;20018;-67
2022/06/29 11:19:49;;;;;;;3.28;2.42;;;23.20;92.00;;;;;;9184281;19;19923;-67
2022/06/29 11:22:53;;;;;;;3.85;2.30;;;23.30;92.60;;;;;;9179115;19;20124;-67
2022/06/29 11:25:58;;;;;;;3.45;2.22;;;23.30;93.90;;;;;;9179789;19;20015;-67
2022/06/29 11:29:06;;;;;;;2.30;2.10;;;23.50;94.00;;;;;;9180009;19;20475;-66
2022/06/29 11:32:10;;;;;;;4.30;2.55;;;23.90;92.80;;;;;;9183469;19;20022;-66
2022/06/29 11:35:15;;;;;;;4.15;2.30;;;24.20;91.10;;;;;;9178964;19;20381;-66
2022/06/29 11:38:19;;;;;;;2.95;2.40;;;24.30;90.40;;;;;;9178210;19;20053;-66
2022/06/29 11:41:26;;;;;;;5.72;2.80;;;24.70;89.70;;;;;;9180441;19;20015;-68
2022/06/29 11:44:33;;;;;;;3.55;2.75;;;25.00;90.40;;;;;;9180759;19;20010;-66
2022/06/29 11:47:37;;;;;;;3.90;2.78;;;25.00;88.30;;;;;;9176849;19;20015;-66
2022/06/29 11:50:49;;;;;;;3.85;2.65;;;25.00;88.10;;;;;;9176062;19;20026;-66
2022/06/29 11:53:56;;;;;;;3.47;2.92;;;24.80;88.50;;;;;;9180201;19;20022;-66
2022/06/29 11:57:00;;;;;;;3.28;2.95;;;24.80;87.10;;;;;;9179279;19;20037;-66
2022/06/29 12:00:12;;;;;;;4.45;3.10;;;24.70;86.30;;;;;;9178764;19;20088;-66
2022/06/29 12:03:17;;;;;;;4.28;3.03;;;24.80;89.60;;;;;;9175694;19;20007;-66
2022/06/29 12:06:23;;;;;;;4.50;2.92;;;25.00;89.10;;;;;;9176860;19;20070;-66
2022/06/29 12:09:27;;;;;;;3.70;3.10;;;25.00;89.40;;;;;;9179164;19;20022;-66
2022/06/29 12:12:32;;;;;;;5.82;3.03;;;25.10;87.50;;;;;;9177646;19;20015;-67
2022/06/29 12:15:39;;;;;;;4.97;3.25;;;25.20;89.20;;;;;;9182925;19;20024;-67
2022/06/29 12:18:42;;;;;;;5.55;3.50;;;25.30;90.00;;;;;;9180839;19;20371;-67
2022/06/29 12:21:46;;;;;;;3.63;3.28;;;25.20;90.60;;;;;;9177624;19;20014;-66
2022/06/29 12:24:50;;;;;;;4.93;3.42;;;25.30;87.90;;;;;;9177457;19;20025;-66
2022/06/29 12:27:54;;;;;;;5.70;4.53;;;25.40;90.00;;;;;;9178592;19;20010;-66
2022/06/29 12:31:01;;;;;;;5.38;4.35;;;25.60;87.30;;;;;;9179572;19;20042;-67
2022/06/29 12:34:04;;;;;;;;;;;25.70;88.30;;;;;;9179876;19;20043;-67
2022/06/29 12:37:08;;;;;;;8.40;4.80;;;26.00;90.20;;;;;;9178924;19;19926;-67
2022/06/29 12:40:13;;;;;;;6.15;4.63;;;26.20;89.30;;;;;;9174852;19;20018;-66
2022/06/29 12:43:17;;;;;;;5.32;4.72;;;25.90;90.90;;;;;;9172505;19;20011;-66
2022/06/29 12:46:24;;;;;;;5.47;4.95;;;25.70;91.80;;;;;;9179545;19;20033;-67
2022/06/29 12:49:28;;;;;;;7.75;5.05;;;25.90;92.00;;;;;;9179972;19;20022;-66
2022/06/29 12:52:32;;;;;;;7.43;5.78;;;25.90;92.00;;;;;;9179846;19;20018;-66
2022/06/29 12:55:36;;;;;;;7.38;5.68;;;26.10;90.90;;;;;;9175525;19;20022;-67
2022/06/29 12:58:40;;;;;;;8.13;5.13;;;26.20;91.00;;;;;;9179255;19;20019;-67
2022/06/29 13:01:47;;;;;;;6.68;4.75;;;26.50;91.30;;;;;;9178701;19;20018;-66
2022/06/29 13:04:51;;;;;;;6.30;4.70;;;26.80;90.10;;;;;;9175322;19;20357;-67
2022/06/29 13:07:55;;;;;;;7.95;5.00;;;26.70;90.10;;;;;;9177226;19;20015;-67
2022/06/29 13:11:01;;;;;;;6.22;5.05;;;26.40;90.00;;;;;;9176713;19;20018;-66
2022/06/29 13:14:05;;;;;;;9.85;5.18;;;26.40;89.80;;;;;;9179441;19;20019;-66
2022/06/29 13:17:11;;;;;;;7.00;5.15;;;26.00;90.30;;;;;;9175545;19;20351;-67
2022/06/29 13:20:15;;;;;;;;;;;26.20;89.40;;;;;;9178882;19;20014;-66
2022/06/29 13:23:19;;;;;;;5.05;4.55;;;25.80;89.60;;;;;;9179334;19;19919;-68
2022/06/29 13:26:23;;;;;;;5.55;5.05;;;25.70;90.10;;;;;;9178803;19;20017;-64
2022/06/29 13:29:27;;;;;;;5.72;4.93;;;25.80;89.10;;;;;;9179577;19;20361;-66
2022/06/29 13:32:34;;;;;;;7.13;4.80;;;25.80;89.20;;;;;;9177038;19;20376;-66
2022/06/29 13:35:37;;;;;;;;;;;25.70;90.20;;;;;;9181959;19;20079;-66
2022/06/29 13:38:43;;;;;;;8.93;5.50;;;25.90;90.30;;;;;;9177034;19;19915;-66
2022/06/29 13:41:47;;;;;;;6.28;5.50;;;25.90;91.00;;;;;;9176328;19;20491;-67
2022/06/29 13:44:51;;;;;;;5.80;5.20;;;26.00;90.80;;;;;;9173776;19;20006;-66
2022/06/29 13:47:57;;;;;;;5.63;4.63;;;26.40;90.20;;;;;;9178802;19;20017;-66
2022/06/29 13:51:01;;;;;;;;;;;26.70;90.60;;;;;;9183276;19;20024;-66
2022/06/29 13:54:05;;;;;;;5.93;5.00;;;26.70;89.50;;;;;;9185337;19;19929;-66
2022/06/29 13:57:10;;;;;;;7.22;5.28;;;26.60;89.80;;;;;;9183331;19;20352;-67
2022/06/29 14:00:14;;;;;;;7.28;5.20;;;26.50;90.10;;;;;;9188626;19;20070;-66
2022/06/29 14:03:21;;;;;;;7.68;5.10;;;26.30;89.50;;;;;;9184754;19;20007;-66
2022/06/29 14:06:25;;;;;;;;;;;26.70;89.20;;;;;;9188046;19;20046;-64
2022/06/29 14:09:29;;;;;;;8.23;5.57;;;26.90;88.20;;;;;;9185677;19;19978;-64
2022/06/29 14:12:33;;;;;;;7.80;5.40;;;27.10;88.50;;;;;;9183917;19;20014;-65
2022/06/29 14:15:37;;;;;;;7.25;5.35;;;27.00;88.30;;;;;;9187549;19;20010;-66
2022/06/29 14:18:43;;;;;;;6.20;4.75;;;26.30;87.70;;;;;;9188047;19;20007;-66
2022/06/29 14:21:47;;;;;;;;;;;26.60;88.00;;;;;;9185303;19;20680;-66
2022/06/29 14:24:51;;;;;;;5.65;4.53;;;26.50;90.30;;;;;;9188470;19;19922;-66
2022/06/29 14:27:55;;;;;;;7.15;5.63;;;26.50;90.00;;;;;;9183031;19;20510;-66
2022/06/29 14:30:59;;;;;;;6.82;5.13;;;26.60;89.10;;;;;;9183056;19;20471;-67
2022/06/29 14:34:06;;;;;;;5.78;5.10;;;26.90;88.00;;;;;;9186703;19;20019;-66
2022/06/29 14:37:09;;;;;;;;;;;27.10;88.70;;;;;;9186822;19;20014;-67
2022/06/29 14:40:13;;;;;;;6.65;5.00;;;27.10;87.30;;;;;;9186240;19;19986;-67
2022/06/29 14:43:17;;;;;;;5.95;5.43;;;27.10;89.20;;;;;;9177970;19;20363;-67
2022/06/29 14:46:21;;;;;;;7.13;5.32;;;26.80;88.10;;;;;;9186613;19;20490;-67
2022/06/29 14:49:28;;;;;;;7.00;5.90;;;26.70;88.80;;;;;;9181173;19;20360;-67
2022/06/29 14:52:33;;;;;;;;;;;26.90;86.80;;;;;;9185429;19;20025;-66
2022/06/29 14:55:37;;;;;;;6.95;5.25;;;26.20;86.70;;;;;;9186862;19;20294;-66
2022/06/29 14:58:41;;;;;;;7.65;5.35;;;26.60;87.00;;;;;;9180854;19;20072;-66
2022/06/29 15:01:45;;;;;;;6.43;5.20;;;26.60;87.10;;;;;;9182033;19;20471;-67
2022/06/29 15:04:52;;;;;;;6.18;5.20;;;26.40;88.60;;;;;;9180868;19;20011;-66
2022/06/29 15:07:56;;;;;;;6.45;4.95;;;26.70;89.40;;;;;;9180127;19;20017;-66
2022/06/29 15:11:00;;;;;;;6.93;5.15;;;26.80;89.80;;;;;;9181490;19;20082;-67
2022/06/29 15:14:05;;;;;;;7.00;5.38;;;26.80;90.50;;;;;;9173136;19;20015;-66
2022/06/29 15:17:09;;;;;;;6.55;5.30;;;26.70;90.20;;;;;;9175422;19;20039;-66
2022/06/29 15:20:17;;;;;;;7.90;5.00;;;26.70;90.10;;;;;;9178198;19;20022;-66
2022/06/29 15:23:21;;;;;;;6.47;5.38;;;26.60;90.40;;;;;;9180662;19;20015;-67
2022/06/29 15:26:25;;;;;;;5.68;5.18;;;26.70;89.90;;;;;;9180771;19;20507;-67
2022/06/29 15:29:29;;;;;;;10.13;5.35;;;26.40;89.60;;;;;;9177308;19;20019;-66
2022/06/29 15:32:32;;;;;;;7.30;5.35;;;26.60;90.00;;;;;;9181995;19;20010;-67
2022/06/29 15:38:55;;;;;;;6.18;5.07;;;26.70;90.10;;;;;;9180493;19;20018;-66
2022/06/29 15:41:59;;;;;;;6.57;5.20;;;27.10;90.60;;;;;;9176311;19;20060;-66
2022/06/29 15:45:04;;;;;;;5.63;5.10;;;27.30;89.10;;;;;;9180696;19;20023;-66
2022/06/29 15:48:09;;;;;;;5.90;5.30;;;28.00;85.80;;;;;;9177995;19;20479;-66
2022/06/29 15:51:15;;;;;;;7.40;5.30;;;28.20;85.50;;;;;;9182712;19;20006;-65
2022/06/29 15:57:35;;;;;;;6.68;5.13;;;28.10;81.70;;;;;;9179015;19;20019;-68
2022/06/29 16:00:39;;;;;;;6.03;5.43;;;28.10;84.00;;;;;;9181994;19;20011;-67
2022/06/29 16:03:43;;;;;;;7.75;5.13;;;28.20;82.60;;;;;;9180251;19;20010;-65
2022/06/29 16:06:51;;;;;;;5.95;5.35;;;28.10;82.00;;;;;;9177379;19;20015;-66
2022/06/29 16:09:54;;;;;;;7.18;5.63;;;28.30;82.40;;;;;;9176385;19;20385;-66
2022/06/29 16:12:58;;;;;;;5.80;4.88;;;28.30;84.80;;;;;;9174338;19;20495;-66
2022/06/29 16:16:03;;;;;;;7.18;5.13;;;28.40;85.70;;;;;;9174665;19;20052;-68
2022/06/29 16:19:08;;;;;;;6.28;5.03;;;28.20;85.00;;;;;;9030216;19;20014;-67
2022/06/29 16:22:15;;;;;;;7.20;5.50;;;28.10;83.60;;;;;;9175717;19;20371;-67
2022/06/29 16:25:19;;;;;;;7.97;5.90;;;28.10;83.70;;;;;;9179132;19;20015;-67
2022/06/29 16:28:23;;;;;;;8.10;5.10;;;28.20;83.40;;;;;;9177464;19;20048;-66
2022/06/29 16:31:27;;;;;;;8.55;5.20;;;28.80;82.10;;;;;;9174997;19;20018;-66